West Lima, Wisconsin
Current Conditions -  °F | °C
As of 7:14 PM on Sunday 21 Dec 2014 (Local Time) from KY51 Reporting Station
Overcast Overcast  
Wind Chill: 25°   Ceiling: 500
Heat Index: 35°   Visibility: 3mi
Dew Point: 35°   Wind: 16mph
Humidity: 100%   Direction: 160°SSE
Pressure: 29.86"   Gusts: 23mph
Location:  43.6192°N, 90.6193°W
Report Text: KY51 220114Z AUTO 16014G20KT 3SM OVC005 02/02 A2986 RMK AO1 T00170017
Loading
Personal Weather Stations






























Interactive Weather Map New forecast layout! Learn more

10-Day Weather Forecast

Advertisements
Track Severe Weather on mobile